sensor_id;sensor_type;location;lat;lon;timestamp;temperature;humidity
14097;DHT22;7125;48.106;11.544;2022-09-01T00:00:24;14.80;99.90
14097;DHT22;7125;48.106;11.544;2022-09-01T00:02:53;14.80;99.90
14097;DHT22;7125;48.106;11.544;2022-09-01T00:05:20;14.90;99.90
14097;DHT22;7125;48.106;11.544;2022-09-01T00:07:47;14.80;99.90
14097;DHT22;7125;48.106;11.544;2022-09-01T00:10:15;14.80;99.90
14097;DHT22;7125;48.106;11.544;2022-09-01T00:12:43;14.80;99.90
14097;DHT22;7125;48.106;11.544;2022-09-01T00:15:10;14.80;99.90
14097;DHT22;7125;48.106;11.544;2022-09-01T00:17:37;14.70;99.90
14097;DHT22;7125;48.106;11.544;2022-09-01T00:20:05;14.70;99.90
14097;DHT22;7125;48.106;11.544;2022-09-01T00:22:33;14.70;99.90
14097;DHT22;7125;48.106;11.544;2022-09-01T00:25:00;14.80;99.90
14097;DHT22;7125;48.106;11.544;2022-09-01T00:27:27;14.70;99.90
14097;DHT22;7125;48.106;11.544;2022-09-01T00:29:55;14.70;99.90
14097;DHT22;7125;48.106;11.544;2022-09-01T00:32:22;14.70;99.90
14097;DHT22;7125;48.106;11.544;2022-09-01T00:34:49;14.70;99.90
14097;DHT22;7125;48.106;11.544;2022-09-01T00:37:16;14.70;99.90
14097;DHT22;7125;48.106;11.544;2022-09-01T00:39:43;14.70;99.90
14097;DHT22;7125;48.106;11.544;2022-09-01T00:42:10;14.70;99.90
14097;DHT22;7125;48.106;11.544;2022-09-01T00:44:37;14.70;99.90
14097;DHT22;7125;48.106;11.544;2022-09-01T00:47:05;14.70;99.90
14097;DHT22;7125;48.106;11.544;2022-09-01T00:49:35;14.60;99.90
14097;DHT22;7125;48.106;11.544;2022-09-01T00:52:07;14.60;99.90
14097;DHT22;7125;48.106;11.544;2022-09-01T00:54:39;14.60;99.90
14097;DHT22;7125;48.106;11.544;2022-09-01T00:57:08;14.60;99.90
14097;DHT22;7125;48.106;11.544;2022-09-01T00:59:40;14.60;99.90
14097;DHT22;7125;48.106;11.544;2022-09-01T01:02:10;14.60;99.90
14097;DHT22;7125;48.106;11.544;2022-09-01T01:04:37;14.60;99.90
14097;DHT22;7125;48.106;11.544;2022-09-01T01:07:05;14.60;99.90
14097;DHT22;7125;48.106;11.544;2022-09-01T01:09:37;14.50;99.90
14097;DHT22;7125;48.106;11.544;2022-09-01T01:12:05;14.50;99.90
14097;DHT22;7125;48.106;11.544;2022-09-01T01:14:36;14.50;99.90
14097;DHT22;7125;48.106;11.544;2022-09-01T01:17:04;14.50;99.90
14097;DHT22;7125;48.106;11.544;2022-09-01T01:19:39;14.60;99.90
14097;DHT22;7125;48.106;11.544;2022-09-01T01:22:31;14.50;99.90
14097;DHT22;7125;48.106;11.544;2022-09-01T01:25:18;14.50;99.90
14097;DHT22;7125;48.106;11.544;2022-09-01T01:27:47;14.50;99.90
14097;DHT22;7125;48.106;11.544;2022-09-01T01:30:15;14.50;99.90
14097;DHT22;7125;48.106;11.544;2022-09-01T01:32:43;14.50;99.90
14097;DHT22;7125;48.106;11.544;2022-09-01T01:35:14;14.50;99.90
14097;DHT22;7125;48.106;11.544;2022-09-01T01:37:43;14.50;99.90
14097;DHT22;7125;48.106;11.544;2022-09-01T01:40:19;14.50;99.90
14097;DHT22;7125;48.106;11.544;2022-09-01T01:42:50;14.50;99.90
14097;DHT22;7125;48.106;11.544;2022-09-01T01:45:19;14.50;99.90
14097;DHT22;7125;48.106;11.544;2022-09-01T01:47:49;14.50;99.90
14097;DHT22;7125;48.106;11.544;2022-09-01T01:50:19;14.50;99.90
14097;DHT22;7125;48.106;11.544;2022-09-01T01:52:46;14.50;99.90
14097;DHT22;7125;48.106;11.544;2022-09-01T01:55:14;14.50;99.90
14097;DHT22;7125;48.106;11.544;2022-09-01T01:57:46;14.50;99.90
14097;DHT22;7125;48.106;11.544;2022-09-01T02:00:20;14.50;99.90
14097;DHT22;7125;48.106;11.544;2022-09-01T02:02:48;14.50;99.90
14097;DHT22;7125;48.106;11.544;2022-09-01T02:05:22;14.40;99.90
14097;DHT22;7125;48.106;11.544;2022-09-01T02:07:52;14.40;99.90
14097;DHT22;7125;48.106;11.544;2022-09-01T02:10:27;14.40;99.90
14097;DHT22;7125;48.106;11.544;2022-09-01T02:12:58;14.40;99.90
14097;DHT22;7125;48.106;11.544;2022-09-01T02:15:29;14.40;99.90
14097;DHT22;7125;48.106;11.544;2022-09-01T02:18:08;14.50;99.90
14097;DHT22;7125;48.106;11.544;2022-09-01T02:20:35;14.50;99.90
14097;DHT22;7125;48.106;11.544;2022-09-01T02:23:02;14.50;99.90
14097;DHT22;7125;48.106;11.544;2022-09-01T02:25:34;14.40;99.90
14097;DHT22;7125;48.106;11.544;2022-09-01T02:28:03;14.40;99.90
14097;DHT22;7125;48.106;11.544;2022-09-01T02:30:34;14.40;99.90
14097;DHT22;7125;48.106;11.544;2022-09-01T02:33:02;14.40;99.90
14097;DHT22;7125;48.106;11.544;2022-09-01T02:35:30;14.40;99.90
14097;DHT22;7125;48.106;11.544;2022-09-01T02:37:59;14.40;99.90
14097;DHT22;7125;48.106;11.544;2022-09-01T02:40:27;14.40;99.90
14097;DHT22;7125;48.106;11.544;2022-09-01T02:42:55;14.40;99.90
14097;DHT22;7125;48.106;11.544;2022-09-01T02:45:25;14.30;99.90
14097;DHT22;7125;48.106;11.544;2022-09-01T02:47:53;14.30;99.90
14097;DHT22;7125;48.106;11.544;2022-09-01T02:50:22;14.30;99.90
14097;DHT22;7125;48.106;11.544;2022-09-01T02:52:49;14.30;99.90
14097;DHT22;7125;48.106;11.544;2022-09-01T02:55:17;14.20;99.90
14097;DHT22;7125;48.106;11.544;2022-09-01T02:57:45;14.20;99.90
14097;DHT22;7125;48.106;11.544;2022-09-01T03:00:13;14.10;99.90
14097;DHT22;7125;48.106;11.544;2022-09-01T03:02:50;14.10;99.90
14097;DHT22;7125;48.106;11.544;2022-09-01T03:05:19;14.10;99.90
14097;DHT22;7125;48.106;11.544;2022-09-01T03:07:53;14.00;99.90
14097;DHT22;7125;48.106;11.544;2022-09-01T03:10:26;14.00;99.90
14097;DHT22;7125;48.106;11.544;2022-09-01T03:12:59;13.90;99.90
14097;DHT22;7125;48.106;11.544;2022-09-01T03:15:26;13.90;99.90
14097;DHT22;7125;48.106;11.544;2022-09-01T03:17:55;13.90;99.90
14097;DHT22;7125;48.106;11.544;2022-09-01T03:20:24;13.80;99.90
14097;DHT22;7125;48.106;11.544;2022-09-01T03:22:51;13.80;99.90
14097;DHT22;7125;48.106;11.544;2022-09-01T03:25:19;13.80;99.90
14097;DHT22;7125;48.106;11.544;2022-09-01T03:27:50;13.80;99.90
14097;DHT22;7125;48.106;11.544;2022-09-01T03:30:17;13.70;99.90
14097;DHT22;7125;48.106;11.544;2022-09-01T03:32:45;13.70;99.90
14097;DHT22;7125;48.106;11.544;2022-09-01T03:35:13;13.70;99.90
14097;DHT22;7125;48.106;11.544;2022-09-01T03:37:42;13.70;99.90
14097;DHT22;7125;48.106;11.544;2022-09-01T03:40:11;13.70;99.90
14097;DHT22;7125;48.106;11.544;2022-09-01T03:42:38;13.70;99.90
14097;DHT22;7125;48.106;11.544;2022-09-01T03:45:07;13.70;99.90
14097;DHT22;7125;48.106;11.544;2022-09-01T03:47:39;13.70;99.90
14097;DHT22;7125;48.106;11.544;2022-09-01T03:50:09;13.60;99.90
14097;DHT22;7125;48.106;11.544;2022-09-01T03:52:44;13.60;99.90
14097;DHT22;7125;48.106;11.544;2022-09-01T03:55:11;13.70;99.90
14097;DHT22;7125;48.106;11.544;2022-09-01T03:57:38;13.70;99.90
14097;DHT22;7125;48.106;11.544;2022-09-01T04:00:08;13.70;99.90
14097;DHT22;7125;48.106;11.544;2022-09-01T04:02:48;13.70;99.90
14097;DHT22;7125;48.106;11.544;2022-09-01T04:05:17;13.70;99.90
14097;DHT22;7125;48.106;11.544;2022-09-01T04:07:47;13.80;99.90
14097;DHT22;7125;48.106;11.544;2022-09-01T04:10:15;13.80;99.90
14097;DHT22;7125;48.106;11.544;2022-09-01T04:12:43;13.80;99.90
14097;DHT22;7125;48.106;11.544;2022-09-01T04:15:12;13.80;99.90
14097;DHT22;7125;48.106;11.544;2022-09-01T04:17:40;13.80;99.90
14097;DHT22;7125;48.106;11.544;2022-09-01T04:20:24;13.80;99.90
14097;DHT22;7125;48.106;11.544;2022-09-01T04:22:53;13.80;99.90
14097;DHT22;7125;48.106;11.544;2022-09-01T04:25:21;13.80;99.90
14097;DHT22;7125;48.106;11.544;2022-09-01T04:27:51;13.80;99.90
14097;DHT22;7125;48.106;11.544;2022-09-01T04:30:21;13.80;99.90
14097;DHT22;7125;48.106;11.544;2022-09-01T04:32:52;13.80;99.90
14097;DHT22;7125;48.106;11.544;2022-09-01T04:35:20;13.80;99.90
14097;DHT22;7125;48.106;11.544;2022-09-01T04:37:59;13.80;99.90
14097;DHT22;7125;48.106;11.544;2022-09-01T04:40:27;13.70;99.90
14097;DHT22;7125;48.106;11.544;2022-09-01T04:42:54;13.70;99.90
14097;DHT22;7125;48.106;11.544;2022-09-01T04:45:21;13.70;99.90
14097;DHT22;7125;48.106;11.544;2022-09-01T04:47:52;13.60;99.90
14097;DHT22;7125;48.106;11.544;2022-09-01T04:50:20;13.60;99.90
14097;DHT22;7125;48.106;11.544;2022-09-01T04:53:08;13.60;99.90
14097;DHT22;7125;48.106;11.544;2022-09-01T04:55:40;13.60;99.90
14097;DHT22;7125;48.106;11.544;2022-09-01T04:58:10;13.60;99.90
14097;DHT22;7125;48.106;11.544;2022-09-01T05:00:39;13.60;99.90
14097;DHT22;7125;48.106;11.544;2022-09-01T05:03:06;13.60;99.90
14097;DHT22;7125;48.106;11.544;2022-09-01T05:05:52;13.60;99.90
14097;DHT22;7125;48.106;11.544;2022-09-01T05:08:21;13.60;99.90
14097;DHT22;7125;48.106;11.544;2022-09-01T05:10:50;13.60;99.90
14097;DHT22;7125;48.106;11.544;2022-09-01T05:13:34;13.60;99.90
14097;DHT22;7125;48.106;11.544;2022-09-01T05:16:05;13.60;99.90
14097;DHT22;7125;48.106;11.544;2022-09-01T05:18:38;13.60;99.90
14097;DHT22;7125;48.106;11.544;2022-09-01T05:21:06;13.70;99.90
14097;DHT22;7125;48.106;11.544;2022-09-01T05:23:36;13.70;99.90
14097;DHT22;7125;48.106;11.544;2022-09-01T05:26:11;13.70;99.90
14097;DHT22;7125;48.106;11.544;2022-09-01T05:28:43;13.70;99.90
14097;DHT22;7125;48.106;11.544;2022-09-01T05:31:10;13.70;99.90
14097;DHT22;7125;48.106;11.544;2022-09-01T05:33:39;13.80;99.90
14097;DHT22;7125;48.106;11.544;2022-09-01T05:36:11;13.80;99.90
14097;DHT22;7125;48.106;11.544;2022-09-01T05:38:42;13.80;99.90
14097;DHT22;7125;48.106;11.544;2022-09-01T05:41:12;13.80;99.90
14097;DHT22;7125;48.106;11.544;2022-09-01T05:43:40;13.80;99.90
14097;DHT22;7125;48.106;11.544;2022-09-01T05:46:12;13.90;99.90
14097;DHT22;7125;48.106;11.544;2022-09-01T05:48:42;13.90;99.90
14097;DHT22;7125;48.106;11.544;2022-09-01T05:51:11;13.90;99.90
14097;DHT22;7125;48.106;11.544;2022-09-01T05:53:42;13.90;99.90
14097;DHT22;7125;48.106;11.544;2022-09-01T05:56:12;13.90;99.90
14097;DHT22;7125;48.106;11.544;2022-09-01T05:58:40;14.00;99.90
14097;DHT22;7125;48.106;11.544;2022-09-01T06:01:09;14.00;99.90
14097;DHT22;7125;48.106;11.544;2022-09-01T06:03:38;14.10;99.90
14097;DHT22;7125;48.106;11.544;2022-09-01T06:06:07;14.10;99.90
14097;DHT22;7125;48.106;11.544;2022-09-01T06:08:38;14.20;99.90
14097;DHT22;7125;48.106;11.544;2022-09-01T06:11:10;14.20;99.90
14097;DHT22;7125;48.106;11.544;2022-09-01T06:13:43;14.20;99.90
14097;DHT22;7125;48.106;11.544;2022-09-01T06:16:12;14.20;99.90
14097;DHT22;7125;48.106;11.544;2022-09-01T06:18:41;14.30;99.90
14097;DHT22;7125;48.106;11.544;2022-09-01T06:21:08;14.30;99.90
14097;DHT22;7125;48.106;11.544;2022-09-01T06:23:41;14.40;99.90
14097;DHT22;7125;48.106;11.544;2022-09-01T06:26:17;14.40;99.90
14097;DHT22;7125;48.106;11.544;2022-09-01T06:28:44;14.40;99.90
14097;DHT22;7125;48.106;11.544;2022-09-01T06:31:11;14.50;99.90
14097;DHT22;7125;48.106;11.544;2022-09-01T06:33:40;14.50;99.90
14097;DHT22;7125;48.106;11.544;2022-09-01T06:36:08;14.50;99.90
14097;DHT22;7125;48.106;11.544;2022-09-01T06:38:35;14.50;99.90
14097;DHT22;7125;48.106;11.544;2022-09-01T06:41:05;14.50;99.90
14097;DHT22;7125;48.106;11.544;2022-09-01T06:43:39;14.50;99.90
14097;DHT22;7125;48.106;11.544;2022-09-01T06:46:08;14.50;99.90
14097;DHT22;7125;48.106;11.544;2022-09-01T06:48:36;14.50;99.90
14097;DHT22;7125;48.106;11.544;2022-09-01T06:51:13;14.60;99.90
14097;DHT22;7125;48.106;11.544;2022-09-01T06:53:40;14.60;99.90
14097;DHT22;7125;48.106;11.544;2022-09-01T06:56:10;14.60;99.90
14097;DHT22;7125;48.106;11.544;2022-09-01T06:58:41;14.70;99.90
14097;DHT22;7125;48.106;11.544;2022-09-01T07:01:10;14.70;99.90
14097;DHT22;7125;48.106;11.544;2022-09-01T07:03:40;14.80;99.90
14097;DHT22;7125;48.106;11.544;2022-09-01T07:06:16;14.80;99.90
14097;DHT22;7125;48.106;11.544;2022-09-01T07:09:02;14.80;99.90
14097;DHT22;7125;48.106;11.544;2022-09-01T07:11:33;14.80;99.90
14097;DHT22;7125;48.106;11.544;2022-09-01T07:14:04;14.80;99.90
14097;DHT22;7125;48.106;11.544;2022-09-01T07:16:34;14.80;99.90
14097;DHT22;7125;48.106;11.544;2022-09-01T07:19:03;14.80;99.90
14097;DHT22;7125;48.106;11.544;2022-09-01T07:21:32;14.80;99.90
14097;DHT22;7125;48.106;11.544;2022-09-01T07:24:00;14.90;99.90
14097;DHT22;7125;48.106;11.544;2022-09-01T07:26:30;14.90;99.90
14097;DHT22;7125;48.106;11.544;2022-09-01T07:29:03;14.90;99.90
14097;DHT22;7125;48.106;11.544;2022-09-01T07:31:32;14.90;99.90
14097;DHT22;7125;48.106;11.544;2022-09-01T07:34:04;14.90;99.90
14097;DHT22;7125;48.106;11.544;2022-09-01T07:36:33;15.00;99.90
14097;DHT22;7125;48.106;11.544;2022-09-01T07:39:03;15.10;99.90
14097;DHT22;7125;48.106;11.544;2022-09-01T07:41:30;15.10;99.90
14097;DHT22;7125;48.106;11.544;2022-09-01T07:44:26;15.10;99.90
14097;DHT22;7125;48.106;11.544;2022-09-01T07:47:12;15.20;99.90
14097;DHT22;7125;48.106;11.544;2022-09-01T07:49:41;15.20;99.90
14097;DHT22;7125;48.106;11.544;2022-09-01T07:52:08;15.30;99.90
14097;DHT22;7125;48.106;11.544;2022-09-01T07:54:35;15.40;99.90
14097;DHT22;7125;48.106;11.544;2022-09-01T07:57:03;15.40;99.90
14097;DHT22;7125;48.106;11.544;2022-09-01T07:59:34;15.40;99.90
14097;DHT22;7125;48.106;11.544;2022-09-01T08:02:13;15.40;99.90
14097;DHT22;7125;48.106;11.544;2022-09-01T08:04:43;15.40;99.90
14097;DHT22;7125;48.106;11.544;2022-09-01T08:07:11;15.40;99.90
14097;DHT22;7125;48.106;11.544;2022-09-01T08:09:38;15.40;99.90
14097;DHT22;7125;48.106;11.544;2022-09-01T08:12:07;15.40;99.90
14097;DHT22;7125;48.106;11.544;2022-09-01T08:14:51;15.40;99.90
14097;DHT22;7125;48.106;11.544;2022-09-01T08:17:19;15.40;99.90
14097;DHT22;7125;48.106;11.544;2022-09-01T08:19:46;15.50;99.90
14097;DHT22;7125;48.106;11.544;2022-09-01T08:22:20;15.50;99.90
14097;DHT22;7125;48.106;11.544;2022-09-01T08:24:58;15.60;99.90
14097;DHT22;7125;48.106;11.544;2022-09-01T08:27:25;15.70;99.90
14097;DHT22;7125;48.106;11.544;2022-09-01T08:29:53;15.80;99.90
14097;DHT22;7125;48.106;11.544;2022-09-01T08:32:21;15.90;99.90
14097;DHT22;7125;48.106;11.544;2022-09-01T08:34:49;16.00;99.90
14097;DHT22;7125;48.106;11.544;2022-09-01T08:37:16;16.20;99.90
14097;DHT22;7125;48.106;11.544;2022-09-01T08:39:43;16.20;99.90
14097;DHT22;7125;48.106;11.544;2022-09-01T08:42:17;16.20;99.90
14097;DHT22;7125;48.106;11.544;2022-09-01T08:44:55;16.20;99.90
14097;DHT22;7125;48.106;11.544;2022-09-01T08:47:24;16.30;99.90
14097;DHT22;7125;48.106;11.544;2022-09-01T08:49:53;16.30;99.90
14097;DHT22;7125;48.106;11.544;2022-09-01T08:52:25;16.40;99.90
14097;DHT22;7125;48.106;11.544;2022-09-01T08:54:57;16.50;99.90
14097;DHT22;7125;48.106;11.544;2022-09-01T08:57:31;16.60;99.90
14097;DHT22;7125;48.106;11.544;2022-09-01T09:00:21;16.60;99.90
14097;DHT22;7125;48.106;11.544;2022-09-01T09:03:03;16.70;99.90
14097;DHT22;7125;48.106;11.544;2022-09-01T09:05:42;16.80;99.90
14097;DHT22;7125;48.106;11.544;2022-09-01T09:08:40;16.80;99.90
14097;DHT22;7125;48.106;11.544;2022-09-01T09:11:35;16.90;99.90
14097;DHT22;7125;48.106;11.544;2022-09-01T09:14:16;16.90;99.90
14097;DHT22;7125;48.106;11.544;2022-09-01T09:16:48;16.90;99.90
14097;DHT22;7125;48.106;11.544;2022-09-01T09:19:18;17.00;99.90
14097;DHT22;7125;48.106;11.544;2022-09-01T09:21:51;17.10;99.90
14097;DHT22;7125;48.106;11.544;2022-09-01T09:24:25;17.10;99.90
14097;DHT22;7125;48.106;11.544;2022-09-01T09:26:54;17.20;99.90
14097;DHT22;7125;48.106;11.544;2022-09-01T09:29:21;17.20;99.90
14097;DHT22;7125;48.106;11.544;2022-09-01T09:32:01;17.20;99.90
14097;DHT22;7125;48.106;11.544;2022-09-01T09:34:32;17.10;99.90
14097;DHT22;7125;48.106;11.544;2022-09-01T09:37:14;17.20;99.90
14097;DHT22;7125;48.106;11.544;2022-09-01T09:39:41;17.20;99.90
14097;DHT22;7125;48.106;11.544;2022-09-01T09:42:10;17.30;99.90
14097;DHT22;7125;48.106;11.544;2022-09-01T09:44:43;17.30;99.90
14097;DHT22;7125;48.106;11.544;2022-09-01T09:47:33;17.30;99.90
14097;DHT22;7125;48.106;11.544;2022-09-01T09:50:12;17.30;99.90
14097;DHT22;7125;48.106;11.544;2022-09-01T09:52:40;17.40;99.90
14097;DHT22;7125;48.106;11.544;2022-09-01T09:55:25;17.40;99.90
14097;DHT22;7125;48.106;11.544;2022-09-01T09:57:55;17.40;99.90
14097;DHT22;7125;48.106;11.544;2022-09-01T10:00:25;17.40;99.90
14097;DHT22;7125;48.106;11.544;2022-09-01T10:02:57;17.40;99.90
14097;DHT22;7125;48.106;11.544;2022-09-01T10:05:36;17.40;99.90
14097;DHT22;7125;48.106;11.544;2022-09-01T10:08:07;17.40;99.90
14097;DHT22;7125;48.106;11.544;2022-09-01T10:10:40;17.40;99.90
14097;DHT22;7125;48.106;11.544;2022-09-01T10:13:11;17.40;99.90
14097;DHT22;7125;48.106;11.544;2022-09-01T10:15:40;17.40;99.90
14097;DHT22;7125;48.106;11.544;2022-09-01T10:18:14;17.50;99.90
14097;DHT22;7125;48.106;11.544;2022-09-01T10:20:47;17.60;99.90
14097;DHT22;7125;48.106;11.544;2022-09-01T10:23:17;17.70;99.90
14097;DHT22;7125;48.106;11.544;2022-09-01T10:25:44;17.90;99.90
14097;DHT22;7125;48.106;11.544;2022-09-01T10:28:18;18.10;99.90
14097;DHT22;7125;48.106;11.544;2022-09-01T10:30:51;18.20;99.90
14097;DHT22;7125;48.106;11.544;2022-09-01T10:33:21;18.20;99.90
14097;DHT22;7125;48.106;11.544;2022-09-01T10:35:51;18.30;99.90
14097;DHT22;7125;48.106;11.544;2022-09-01T10:38:20;18.20;99.90
14097;DHT22;7125;48.106;11.544;2022-09-01T10:40:49;18.00;99.90
14097;DHT22;7125;48.106;11.544;2022-09-01T10:43:41;18.00;99.90
14097;DHT22;7125;48.106;11.544;2022-09-01T10:49:21;18.30;99.90
14097;DHT22;7125;48.106;11.544;2022-09-01T10:51:48;18.50;99.90
14097;DHT22;7125;48.106;11.544;2022-09-01T10:54:48;18.70;99.90
14097;DHT22;7125;48.106;11.544;2022-09-01T10:57:29;18.70;99.90
14097;DHT22;7125;48.106;11.544;2022-09-01T11:06:02;18.90;99.90
14097;DHT22;7125;48.106;11.544;2022-09-01T11:08:44;19.00;99.90
14097;DHT22;7125;48.106;11.544;2022-09-01T11:11:25;19.10;99.90
14097;DHT22;7125;48.106;11.544;2022-09-01T11:13:55;19.10;99.90
14097;DHT22;7125;48.106;11.544;2022-09-01T11:16:30;19.20;99.90
14097;DHT22;7125;48.106;11.544;2022-09-01T11:19:27;19.40;99.90
14097;DHT22;7125;48.106;11.544;2022-09-01T11:22:20;19.60;99.90
14097;DHT22;7125;48.106;11.544;2022-09-01T11:25:09;19.80;99.90
14097;DHT22;7125;48.106;11.544;2022-09-01T11:27:56;19.90;99.90
14097;DHT22;7125;48.106;11.544;2022-09-01T11:30:32;20.10;99.90
14097;DHT22;7125;48.106;11.544;2022-09-01T11:33:07;20.10;99.90
14097;DHT22;7125;48.106;11.544;2022-09-01T11:35:37;20.20;99.90
14097;DHT22;7125;48.106;11.544;2022-09-01T11:38:06;20.30;99.90
14097;DHT22;7125;48.106;11.544;2022-09-01T11:40:35;20.40;99.90
14097;DHT22;7125;48.106;11.544;2022-09-01T11:43:05;20.50;99.90
14097;DHT22;7125;48.106;11.544;2022-09-01T11:45:36;20.70;99.90
14097;DHT22;7125;48.106;11.544;2022-09-01T11:48:08;20.80;99.90
14097;DHT22;7125;48.106;11.544;2022-09-01T11:50:37;20.80;99.90
14097;DHT22;7125;48.106;11.544;2022-09-01T11:53:07;20.80;99.90
14097;DHT22;7125;48.106;11.544;2022-09-01T11:55:38;20.70;99.90
14097;DHT22;7125;48.106;11.544;2022-09-01T11:58:09;20.60;99.90
14097;DHT22;7125;48.106;11.544;2022-09-01T12:00:38;20.60;99.90
14097;DHT22;7125;48.106;11.544;2022-09-01T12:03:19;20.60;99.90
14097;DHT22;7125;48.106;11.544;2022-09-01T12:05:51;20.50;99.90
14097;DHT22;7125;48.106;11.544;2022-09-01T12:08:20;20.40;99.90
14097;DHT22;7125;48.106;11.544;2022-09-01T12:10:47;20.10;99.90
14097;DHT22;7125;48.106;11.544;2022-09-01T12:13:18;20.00;99.90
14097;DHT22;7125;48.106;11.544;2022-09-01T12:15:53;19.70;99.90
14097;DHT22;7125;48.106;11.544;2022-09-01T12:18:22;19.80;99.90
14097;DHT22;7125;48.106;11.544;2022-09-01T12:20:53;19.90;99.90
14097;DHT22;7125;48.106;11.544;2022-09-01T12:23:27;19.90;99.90
14097;DHT22;7125;48.106;11.544;2022-09-01T12:25:56;19.80;99.90
14097;DHT22;7125;48.106;11.544;2022-09-01T12:28:26;19.70;99.90
14097;DHT22;7125;48.106;11.544;2022-09-01T12:30:55;19.80;99.90
14097;DHT22;7125;48.106;11.544;2022-09-01T12:33:23;19.90;99.90
14097;DHT22;7125;48.106;11.544;2022-09-01T12:35:51;19.90;99.90
14097;DHT22;7125;48.106;11.544;2022-09-01T12:38:38;20.20;99.90
14097;DHT22;7125;48.106;11.544;2022-09-01T12:41:22;20.60;98.90
14097;DHT22;7125;48.106;11.544;2022-09-01T12:43:49;21.00;99.90
14097;DHT22;7125;48.106;11.544;2022-09-01T12:46:38;21.10;99.90
14097;DHT22;7125;48.106;11.544;2022-09-01T12:49:16;21.10;99.50
14097;DHT22;7125;48.106;11.544;2022-09-01T12:51:43;21.00;98.60
14097;DHT22;7125;48.106;11.544;2022-09-01T12:54:14;20.80;98.90
14097;DHT22;7125;48.106;11.544;2022-09-01T12:56:47;20.60;99.50
14097;DHT22;7125;48.106;11.544;2022-09-01T12:59:20;20.50;99.90
14097;DHT22;7125;48.106;11.544;2022-09-01T13:01:47;20.40;99.90
14097;DHT22;7125;48.106;11.544;2022-09-01T13:04:23;20.30;99.90
14097;DHT22;7125;48.106;11.544;2022-09-01T13:06:53;20.30;99.90
14097;DHT22;7125;48.106;11.544;2022-09-01T13:09:21;20.50;99.90
14097;DHT22;7125;48.106;11.544;2022-09-01T13:11:48;20.70;99.40
14097;DHT22;7125;48.106;11.544;2022-09-01T13:14:16;21.10;98.80
14097;DHT22;7125;48.106;11.544;2022-09-01T13:16:44;21.40;99.90
14097;DHT22;7125;48.106;11.544;2022-09-01T13:19:11;21.70;97.30
14097;DHT22;7125;48.106;11.544;2022-09-01T13:21:37;21.80;99.50
14097;DHT22;7125;48.106;11.544;2022-09-01T13:24:05;21.90;98.10
14097;DHT22;7125;48.106;11.544;2022-09-01T13:26:34;21.70;97.80
14097;DHT22;7125;48.106;11.544;2022-09-01T13:29:01;21.50;97.00
14097;DHT22;7125;48.106;11.544;2022-09-01T13:31:28;21.20;97.40
14097;DHT22;7125;48.106;11.544;2022-09-01T13:33:56;20.90;99.60
14097;DHT22;7125;48.106;11.544;2022-09-01T13:36:23;20.70;99.70
14097;DHT22;7125;48.106;11.544;2022-09-01T13:38:50;20.60;99.50
14097;DHT22;7125;48.106;11.544;2022-09-01T13:41:17;20.40;99.90
14097;DHT22;7125;48.106;11.544;2022-09-01T13:43:45;20.30;99.90
14097;DHT22;7125;48.106;11.544;2022-09-01T13:46:12;20.30;99.80
14097;DHT22;7125;48.106;11.544;2022-09-01T13:48:39;20.70;99.90
14097;DHT22;7125;48.106;11.544;2022-09-01T13:51:07;20.90;98.40
14097;DHT22;7125;48.106;11.544;2022-09-01T13:53:34;21.10;97.80
14097;DHT22;7125;48.106;11.544;2022-09-01T13:56:01;21.50;96.90
14097;DHT22;7125;48.106;11.544;2022-09-01T13:58:28;21.60;95.80
14097;DHT22;7125;48.106;11.544;2022-09-01T14:00:57;21.80;97.40
14097;DHT22;7125;48.106;11.544;2022-09-01T14:03:24;21.90;96.30
14097;DHT22;7125;48.106;11.544;2022-09-01T14:05:51;21.80;95.90
14097;DHT22;7125;48.106;11.544;2022-09-01T14:08:20;21.70;96.40
14097;DHT22;7125;48.106;11.544;2022-09-01T14:10:49;21.80;96.20
14097;DHT22;7125;48.106;11.544;2022-09-01T14:13:17;21.90;95.40
14097;DHT22;7125;48.106;11.544;2022-09-01T14:15:44;21.90;95.00
14097;DHT22;7125;48.106;11.544;2022-09-01T14:18:13;21.70;94.80
14097;DHT22;7125;48.106;11.544;2022-09-01T14:20:43;21.50;95.20
14097;DHT22;7125;48.106;11.544;2022-09-01T14:23:10;21.30;96.40
14097;DHT22;7125;48.106;11.544;2022-09-01T14:25:41;21.30;96.10
14097;DHT22;7125;48.106;11.544;2022-09-01T14:28:08;21.40;96.60
14097;DHT22;7125;48.106;11.544;2022-09-01T14:30:35;21.70;96.30
14097;DHT22;7125;48.106;11.544;2022-09-01T14:33:02;21.90;94.40
14097;DHT22;7125;48.106;11.544;2022-09-01T14:35:30;22.00;96.60
14097;DHT22;7125;48.106;11.544;2022-09-01T14:37:59;22.30;95.40
14097;DHT22;7125;48.106;11.544;2022-09-01T14:40:27;22.50;95.00
14097;DHT22;7125;48.106;11.544;2022-09-01T14:42:54;22.60;93.60
14097;DHT22;7125;48.106;11.544;2022-09-01T14:45:23;22.60;95.10
14097;DHT22;7125;48.106;11.544;2022-09-01T14:47:53;22.80;93.50
14097;DHT22;7125;48.106;11.544;2022-09-01T14:50:21;22.80;94.30
14097;DHT22;7125;48.106;11.544;2022-09-01T14:52:52;22.80;92.30
14097;DHT22;7125;48.106;11.544;2022-09-01T14:55:20;22.80;94.10
14097;DHT22;7125;48.106;11.544;2022-09-01T14:57:47;22.90;93.60
14097;DHT22;7125;48.106;11.544;2022-09-01T15:00:15;22.90;91.80
14097;DHT22;7125;48.106;11.544;2022-09-01T15:02:43;23.00;91.80
14097;DHT22;7125;48.106;11.544;2022-09-01T15:05:11;23.00;92.70
14097;DHT22;7125;48.106;11.544;2022-09-01T15:07:38;23.00;91.70
14097;DHT22;7125;48.106;11.544;2022-09-01T15:10:09;23.10;91.70
14097;DHT22;7125;48.106;11.544;2022-09-01T15:12:37;23.10;90.40
14097;DHT22;7125;48.106;11.544;2022-09-01T15:15:05;23.20;86.70
14097;DHT22;7125;48.106;11.544;2022-09-01T15:17:33;23.10;80.10
14097;DHT22;7125;48.106;11.544;2022-09-01T15:20:01;22.90;79.90
14097;DHT22;7125;48.106;11.544;2022-09-01T15:22:41;22.90;82.00
14097;DHT22;7125;48.106;11.544;2022-09-01T15:25:10;22.90;80.50
14097;DHT22;7125;48.106;11.544;2022-09-01T15:27:36;22.90;84.70
14097;DHT22;7125;48.106;11.544;2022-09-01T15:30:04;23.00;82.90
14097;DHT22;7125;48.106;11.544;2022-09-01T15:32:41;23.00;83.30
14097;DHT22;7125;48.106;11.544;2022-09-01T15:35:09;23.10;83.40
14097;DHT22;7125;48.106;11.544;2022-09-01T15:37:36;23.10;86.40
14097;DHT22;7125;48.106;11.544;2022-09-01T15:40:04;23.10;83.70
14097;DHT22;7125;48.106;11.544;2022-09-01T15:42:33;23.10;87.30
14097;DHT22;7125;48.106;11.544;2022-09-01T15:45:01;23.10;87.20
14097;DHT22;7125;48.106;11.544;2022-09-01T15:47:29;23.20;88.10
14097;DHT22;7125;48.106;11.544;2022-09-01T15:49:56;23.10;87.50
14097;DHT22;7125;48.106;11.544;2022-09-01T15:52:24;23.10;87.20
14097;DHT22;7125;48.106;11.544;2022-09-01T15:54:52;23.10;83.80
14097;DHT22;7125;48.106;11.544;2022-09-01T15:57:19;23.10;86.90
14097;DHT22;7125;48.106;11.544;2022-09-01T15:59:47;23.00;84.60
14097;DHT22;7125;48.106;11.544;2022-09-01T16:02:14;22.80;85.40